Time;durP1;ratioP1;P1;durP2;ratioP2;P2;SDS_P1;SDS_P2;PMS_P1;PMS_P2;Temp;Humidity;BMP_temperature;BMP_pressure;BME280_temperature;BME280_humidity;BME280_pressure;Samples;Min_cycle;Max_cycle;Signal;HPM_P1;HPM_P2
2023/04/19 13:09:21;;;;;;;14.60;9.50;;;;;;;6.79;74.50;101277.83;108668;1260;74351;-90
2023/04/19 13:13:07;;;;;;;14.70;10.70;;;;;;;6.82;74.59;101280.27;108602;1260;67034;-89
2023/04/19 13:25:11;;;;;;;14.10;8.30;;;;;;;6.86;74.66;101275.84;108885;1260;79326;-89
2023/04/19 13:28:58;;;;;;;14.00;9.20;;;;;;;6.89;74.83;101273.65;108533;1260;67101;-89
2023/04/19 13:32:45;;;;;;;16.70;12.40;;;;;;;6.89;74.92;101266.45;108383;1260;72363;-88
2023/04/19 13:36:31;;;;;;;22.50;16.40;;;;;;;6.94;75.05;101270.10;104174;1260;5467063;-89
2023/04/19 13:45:25;;;;;;;19.90;12.00;;;;;;;6.97;74.87;101263.45;108535;1260;67662;-89
2023/04/19 13:49:17;;;;;;;50.10;30.70;;;;;;;6.96;74.97;101262.75;108475;1260;71185;-89
2023/04/19 14:16:26;;;;;;;28.60;17.50;;;;;;;6.95;75.49;101256.73;108596;1263;72178;-91
2023/04/19 14:20:14;;;;;;;26.50;15.30;;;;;;;6.94;75.31;101257.07;108498;1263;59213;-90
2023/04/19 14:44:02;;;;;;;10.00;8.30;;;;;;;6.60;75.61;101265.84;108650;1260;70999;-90
2023/04/19 16:12:49;;;;;;;11.40;9.50;;;;;;;6.49;77.05;101300.83;108597;1260;67550;-89
2023/04/19 16:16:36;;;;;;;15.30;10.50;;;;;;;6.51;77.30;101293.49;108562;1260;71378;-89
2023/04/19 16:20:22;;;;;;;13.70;11.80;;;;;;;6.55;77.25;101300.73;109108;1261;61287;-87
2023/04/19 16:24:09;;;;;;;18.70;12.20;;;;;;;6.57;77.27;101303.67;108468;1263;61194;-88
2023/04/19 16:30:35;;;;;;;13.50;11.30;;;;;;;6.57;77.32;101299.56;108379;1260;67490;-89
2023/04/19 16:34:24;;;;;;;17.20;13.40;;;;;;;6.60;77.41;101301.64;107876;1268;71041;-91
2023/04/19 16:38:30;;;;;;;;;;;;;;;;;;;;;
2023/04/19 16:50:22;;;;;;;;;;;;;;;;;;;;;
2023/04/19 17:11:31;;;;;;;19.80;17.10;;;;;;;6.47;78.02;101330.95;108634;1260;60161;-89
2023/04/19 17:25:02;;;;;;;24.00;17.00;;;;;;;6.42;78.07;101330.02;108561;1260;61104;-89
2023/04/19 20:25:58;;;;;;;21.30;15.20;;;;;;;7.06;80.18;101415.41;108589;1260;73034;-89
2023/04/19 20:29:43;;;;;;;18.50;15.40;;;;;;;7.06;80.36;101413.52;107667;1268;66582;-89
2023/04/19 20:33:30;;;;;;;18.90;15.00;;;;;;;7.07;80.41;101423.81;107709;1268;71262;-89
2023/04/19 20:37:17;;;;;;;19.40;15.10;;;;;;;7.05;80.21;101426.04;107858;1268;61199;-89
2023/04/19 20:41:03;;;;;;;20.20;15.60;;;;;;;7.02;80.28;101424.11;107810;1268;61320;-89
2023/04/19 20:44:50;;;;;;;22.40;16.50;;;;;;;7.00;80.40;101419.11;107931;1268;73246;-89
2023/04/19 20:56:35;;;;;;;26.30;19.80;;;;;;;6.92;80.40;101415.26;108522;1260;61101;-89
2023/04/19 21:00:22;;;;;;;25.00;18.90;;;;;;;6.92;80.61;101408.39;108383;1263;74887;-89
2023/04/19 21:04:09;;;;;;;28.10;20.90;;;;;;;6.93;80.60;101402.23;107762;1269;67351;-89
2023/04/19 21:07:55;;;;;;;33.50;21.50;;;;;;;6.94;80.71;101401.05;107397;1274;72398;-89
2023/04/19 21:22:29;;;;;;;28.10;22.50;;;;;;;6.98;80.63;101399.56;108238;1263;72342;-89
2023/04/19 21:25:43;;;;;;;27.80;21.20;;;;;;;7.00;80.74;101402.48;108597;1260;59029;-89
2023/04/19 21:35:03;;;;;;;29.00;21.50;;;;;;;6.98;80.72;101396.98;108338;1260;67571;-89
2023/04/19 21:38:50;;;;;;;28.50;21.30;;;;;;;6.98;80.84;101392.69;107839;1268;71084;-89
2023/04/19 21:42:37;;;;;;;28.90;21.00;;;;;;;6.97;80.83;101395.60;107538;1268;59314;-89
2023/04/19 21:46:24;;;;;;;30.30;21.50;;;;;;;6.95;80.82;101395.05;107858;1268;61168;-89
2023/04/19 21:50:11;;;;;;;28.00;20.50;;;;;;;6.93;80.86;101395.72;107794;1273;73401;-89
2023/04/19 21:53:58;;;;;;;29.80;20.60;;;;;;;6.94;80.96;101398.81;107271;1277;67500;-89
2023/04/19 21:57:44;;;;;;;27.80;20.10;;;;;;;6.96;80.94;101398.16;107149;1277;73048;-89
2023/04/19 22:01:31;;;;;;;28.70;20.80;;;;;;;6.95;81.05;101399.52;107436;1276;61231;-89
2023/04/19 22:05:18;;;;;;;27.40;21.10;;;;;;;6.96;81.04;101402.27;106310;1287;60686;-89
2023/04/19 22:09:05;;;;;;;27.60;20.50;;;;;;;6.96;81.01;101403.30;106419;1287;74466;-89
2023/04/19 22:12:53;;;;;;;29.60;20.60;;;;;;;6.96;81.04;101401.06;105345;1293;68513;-89
2023/04/19 22:16:40;;;;;;;26.80;19.80;;;;;;;6.95;81.14;101400.55;106015;1288;71368;-88
2023/04/19 22:20:27;;;;;;;30.90;20.20;;;;;;;6.94;81.01;101400.88;106090;1290;59824;-89
2023/04/19 22:24:14;;;;;;;29.30;20.20;;;;;;;6.95;81.18;101398.33;105942;1288;59460;-89
2023/04/19 22:28:08;;;;;;;27.50;20.50;;;;;;;6.95;81.22;101398.66;105877;1293;74515;-89
2023/04/19 22:31:55;;;;;;;26.40;19.90;;;;;;;6.96;81.21;101399.34;106320;1289;68320;-89
2023/04/19 22:35:41;;;;;;;27.30;20.00;;;;;;;6.97;81.28;101401.09;105730;1292;72604;-89
2023/04/19 22:39:28;;;;;;;26.60;19.40;;;;;;;6.99;81.35;101399.23;105352;1297;61095;-89
2023/04/19 22:46:16;;;;;;;26.40;19.50;;;;;;;7.01;81.34;101395.12;108561;1262;74273;-89
2023/04/19 22:50:03;;;;;;;26.80;19.70;;;;;;;7.03;81.34;101392.05;108501;1261;67978;-88
2023/04/19 22:53:53;;;;;;;24.50;19.20;;;;;;;7.04;81.45;101387.79;107717;1270;71262;-89
2023/04/19 23:03:35;;;;;;;23.70;19.50;;;;;;;7.09;81.44;101385.80;108593;1263;73422;-89
2023/04/19 23:07:22;;;;;;;23.90;18.80;;;;;;;7.10;81.53;101379.45;108489;1260;67471;-89
2023/04/19 23:13:32;;;;;;;;;;;;;;;7.11;81.44;101379.11;108562;1260;61003;-89
2023/04/19 23:16:48;;;;;;;24.60;19.60;;;;;;;7.12;81.55;101380.33;108473;1260;58983;-89
2023/04/19 23:25:51;;;;;;;29.40;21.30;;;;;;;7.12;81.51;101384.27;108502;1263;72541;-89
2023/04/19 23:29:39;;;;;;;25.90;20.20;;;;;;;7.11;81.59;101375.70;108351;1263;60988;-89
2023/04/19 23:33:26;;;;;;;22.90;18.90;;;;;;;7.10;81.64;101376.89;108385;1263;60104;-89
2023/04/19 23:37:13;;;;;;;26.10;19.50;;;;;;;7.10;81.65;101373.46;108233;1260;75196;-89
2023/04/19 23:41:00;;;;;;;25.60;18.90;;;;;;;7.09;81.52;101366.23;108138;1261;67269;-89
2023/04/19 23:44:47;;;;;;;26.60;21.00;;;;;;;7.07;81.64;101361.41;108212;1262;70745;-89
2023/04/19 23:48:33;;;;;;;31.10;19.60;;;;;;;7.06;81.69;101360.20;108052;1261;61082;-89
2023/04/19 23:52:23;;;;;;;26.10;19.60;;;;;;;7.04;81.68;101359.84;108219;1263;61013;-89
2023/04/19 23:56:10;;;;;;;26.40;19.40;;;;;;;7.02;81.73;101360.33;108145;1263;74421;-89
2023/04/19 23:59:57;;;;;;;26.40;19.30;;;;;;;7.01;81.68;101365.11;108368;1262;67471;-89
